Time;durP1;ratioP1;P1;durP2;ratioP2;P2;SDS_P1;SDS_P2;PMS_P1;PMS_P2;Temp;Humidity;BMP_temperature;BMP_pressure;BME280_temperature;BME280_humidity;BME280_pressure;Samples;Min_cycle;Max_cycle;Signal;HPM_P1;HPM_P2
2021/12/23 00:00:36;;;;;;;9.50;7.12;;;;;;;1.71;41.38;102794.34;1596345;89;21140;-52
2021/12/23 00:03:04;;;;;;;11.40;6.40;;;;;;;1.70;41.36;102802.86;1584119;89;21057;-52
2021/12/23 00:05:31;;;;;;;9.65;6.75;;;;;;;1.69;41.33;102802.80;1582452;89;21044;-52
2021/12/23 00:07:59;;;;;;;9.08;6.72;;;;;;;1.65;41.45;102803.92;1585719;89;21133;-51
2021/12/23 00:10:27;;;;;;;9.68;7.25;;;;;;;1.64;41.49;102808.60;1587363;90;21105;-51
2021/12/23 00:12:54;;;;;;;10.55;6.47;;;;;;;1.63;41.44;102811.95;1571399;89;21163;-51
2021/12/23 00:15:39;;;;;;;11.03;7.45;;;;;;;1.62;41.33;102812.78;1587222;89;21248;-51
2021/12/23 00:18:29;;;;;;;9.13;7.00;;;;;;;1.61;41.26;102812.69;1709194;80;20998;-51
2021/12/23 00:23:28;;;;;;;9.75;6.85;;;;;;;1.59;41.36;102819.03;1685369;83;21091;-51
2021/12/23 00:26:00;;;;;;;9.95;6.83;;;;;;;1.57;41.34;102821.94;1692478;83;21030;-51
2021/12/23 00:28:26;;;;;;;;;;;;;;;1.56;41.30;102822.76;1670360;84;21043;-50
2021/12/23 00:30:53;;;;;;;8.90;6.78;;;;;;;1.53;41.38;102825.16;1640968;86;20109;-51
2021/12/23 00:33:22;;;;;;;11.25;7.33;;;;;;;1.51;41.39;102832.30;1651508;86;21114;-51
2021/12/23 00:35:49;;;;;;;10.70;6.92;;;;;;;1.49;41.35;102830.95;1659046;84;21617;-51
2021/12/23 00:38:23;;;;;;;10.15;7.12;;;;;;;1.47;41.40;102835.13;1671168;84;21189;-51
2021/12/23 00:40:46;;;;;;;11.70;7.50;;;;;;;1.45;41.41;102832.90;1646989;85;21150;-52
2021/12/23 00:43:13;;;;;;;12.35;7.42;;;;;;;1.43;41.45;102834.52;1696409;83;21150;-51
2021/12/23 00:45:39;;;;;;;12.82;7.53;;;;;;;1.41;41.48;102837.41;1696633;83;21045;-52
2021/12/23 00:48:06;;;;;;;11.65;7.40;;;;;;;1.40;41.53;102827.94;1692702;83;21058;-51
2021/12/23 00:50:32;;;;;;;10.00;7.20;;;;;;;1.38;41.52;102828.27;1694141;82;21067;-51
2021/12/23 00:53:05;;;;;;;8.48;7.03;;;;;;;1.37;41.51;102827.81;1690457;83;21058;-51
2021/12/23 00:55:29;;;;;;;9.63;7.08;;;;;;;1.35;41.55;102827.25;1698575;83;21074;-51
2021/12/23 00:57:55;;;;;;;11.15;7.17;;;;;;;1.33;41.47;102823.34;1707327;83;21078;-51
2021/12/23 01:00:22;;;;;;;10.80;7.40;;;;;;;1.34;41.63;102824.22;1691045;82;21064;-52
2021/12/23 01:02:48;;;;;;;11.05;6.97;;;;;;;1.32;41.60;102819.00;1698095;83;21097;-51
2021/12/23 01:05:18;;;;;;;8.78;6.42;;;;;;;1.33;41.55;102824.62;1709023;83;21041;-51
2021/12/23 01:07:46;;;;;;;10.20;6.70;;;;;;;1.32;41.46;102817.71;1686051;83;21099;-52
2021/12/23 01:10:13;;;;;;;12.55;6.92;;;;;;;1.32;41.39;102815.58;1696720;83;21070;-52
2021/12/23 01:12:45;;;;;;;8.00;6.28;;;;;;;1.31;41.39;102812.13;1680496;83;21024;-52
2021/12/23 01:17:55;;;;;;;7.78;6.53;;;;;;;1.32;41.28;102817.71;1681180;83;21765;-51
2021/12/23 01:20:29;;;;;;;8.65;6.12;;;;;;;1.30;41.20;102812.91;1695786;83;21050;-51
2021/12/23 01:23:05;;;;;;;10.68;6.60;;;;;;;1.28;41.18;102817.09;1688243;83;21073;-51
2021/12/23 01:25:33;;;;;;;8.63;6.15;;;;;;;1.27;41.15;102815.35;1696833;83;21570;-52
2021/12/23 01:28:00;;;;;;;7.67;5.58;;;;;;;1.26;41.09;102813.58;1771102;80;20999;-52
2021/12/23 01:30:27;;;;;;;9.93;6.37;;;;;;;1.25;40.99;102813.51;1759164;80;21460;-52
2021/12/23 01:32:57;;;;;;;8.80;6.10;;;;;;;1.23;41.05;102823.70;1778561;80;21030;-52
2021/12/23 01:35:25;;;;;;;7.17;5.47;;;;;;;1.21;41.18;102820.19;1742469;80;21081;-52
2021/12/23 01:37:53;;;;;;;7.25;5.55;;;;;;;1.20;41.15;102818.41;1778940;80;21002;-52
2021/12/23 01:40:20;;;;;;;8.38;5.62;;;;;;;1.20;41.06;102819.69;1761951;80;21651;-52
2021/12/23 01:42:46;;;;;;;8.50;5.92;;;;;;;1.19;41.02;102819.23;1783554;80;21054;-52
2021/12/23 01:45:22;;;;;;;15.10;6.50;;;;;;;1.18;40.98;102820.02;1758576;80;20970;-52
2021/12/23 01:47:49;;;;;;;9.18;5.87;;;;;;;1.17;40.94;102822.52;1752967;80;21034;-51
2021/12/23 01:50:17;;;;;;;8.48;6.28;;;;;;;1.14;40.96;102823.23;1786847;80;21030;-52
2021/12/23 01:52:44;;;;;;;8.83;6.05;;;;;;;1.11;40.87;102815.41;1751619;80;20990;-52
2021/12/23 01:55:12;;;;;;;7.78;5.53;;;;;;;1.10;40.90;102821.33;1751490;81;21546;-54
2021/12/23 01:57:40;;;;;;;8.88;5.90;;;;;;;1.09;40.85;102818.30;1764222;80;21018;-52
2021/12/23 02:00:11;;;;;;;10.25;5.83;;;;;;;1.07;40.75;102827.57;1770986;80;21045;-52
2021/12/23 02:02:41;;;;;;;11.80;5.50;;;;;;;1.05;40.79;102826.62;1769431;80;21060;-52
2021/12/23 02:05:09;;;;;;;8.10;5.30;;;;;;;1.03;40.81;102828.66;1767696;80;20999;-53
2021/12/23 02:07:38;;;;;;;11.65;5.92;;;;;;;1.02;40.90;102828.16;1752331;80;20998;-52
2021/12/23 02:10:07;;;;;;;8.65;6.17;;;;;;;1.00;40.82;102829.77;1773354;80;21518;-52
2021/12/23 02:12:34;;;;;;;7.90;5.65;;;;;;;0.98;41.02;102828.42;1756241;80;21553;-51
2021/12/23 02:15:00;;;;;;;8.28;5.92;;;;;;;0.96;41.10;102824.91;1751475;80;21108;-52
2021/12/23 02:17:27;;;;;;;7.58;5.40;;;;;;;0.97;41.20;102832.20;1758383;80;21026;-52
2021/12/23 02:19:54;;;;;;;10.28;5.42;;;;;;;0.95;41.25;102828.25;1753586;80;21524;-52
2021/12/23 02:22:20;;;;;;;6.60;4.95;;;;;;;0.95;41.31;102832.09;1750337;80;21058;-51
2021/12/23 02:24:47;;;;;;;7.65;5.28;;;;;;;0.96;41.19;102832.59;1761969;80;21088;-51
2021/12/23 02:27:13;;;;;;;8.80;5.42;;;;;;;0.96;41.11;102829.14;1763037;80;21041;-51
2021/12/23 02:29:40;;;;;;;8.68;5.50;;;;;;;0.95;41.11;102834.66;1769882;80;21038;-51
2021/12/23 02:32:08;;;;;;;6.45;4.60;;;;;;;0.95;41.09;102833.37;1762666;80;21021;-52
2021/12/23 02:34:34;;;;;;;7.60;5.10;;;;;;;0.95;41.10;102833.37;1775479;80;21050;-51
2021/12/23 02:37:00;;;;;;;8.80;5.60;;;;;;;0.95;40.97;102829.53;1760606;80;21045;-51
2021/12/23 02:39:28;;;;;;;6.95;5.10;;;;;;;0.95;40.95;102824.83;1758702;80;21491;-52
2021/12/23 02:41:54;;;;;;;8.08;5.28;;;;;;;0.93;41.00;102820.89;1759553;80;21050;-52
2021/12/23 02:44:21;;;;;;;9.50;5.15;;;;;;;0.92;40.96;102822.98;1784090;80;21002;-52
2021/12/23 02:46:47;;;;;;;6.67;4.90;;;;;;;0.91;40.99;102828.90;1768883;80;21042;-52
2021/12/23 02:49:14;;;;;;;8.98;5.25;;;;;;;0.92;40.92;102828.11;1767897;80;20983;-53
2021/12/23 02:51:42;;;;;;;10.00;5.47;;;;;;;0.91;40.97;102831.47;1764587;80;21022;-53
2021/12/23 02:54:09;;;;;;;8.98;5.28;;;;;;;0.90;40.88;102827.16;1745474;80;21045;-52
2021/12/23 02:56:36;;;;;;;7.45;5.28;;;;;;;0.91;40.93;102832.75;1749002;80;21018;-52
2021/12/23 02:59:03;;;;;;;10.00;5.50;;;;;;;0.92;40.97;102831.96;1759099;80;20991;-52
2021/12/23 03:01:30;;;;;;;8.75;5.50;;;;;;;0.92;41.04;102826.83;1757853;80;21018;-51
2021/12/23 03:03:57;;;;;;;8.93;5.40;;;;;;;0.93;41.17;102836.69;1761305;80;21038;-52
2021/12/23 03:06:25;;;;;;;9.63;5.67;;;;;;;0.94;41.07;102832.91;1784239;80;21490;-52
2021/12/23 03:08:59;;;;;;;8.45;5.37;;;;;;;0.94;41.13;102838.04;1687401;83;21031;-53
2021/12/23 03:11:27;;;;;;;6.17;4.75;;;;;;;0.94;41.26;102837.16;1696086;83;20992;-52
2021/12/23 03:13:54;;;;;;;7.28;5.05;;;;;;;0.93;41.25;102832.42;1690165;83;21078;-53
2021/12/23 03:16:24;;;;;;;11.10;5.78;;;;;;;0.94;41.36;102835.48;1771470;80;21526;-52
2021/12/23 03:18:52;;;;;;;10.28;5.62;;;;;;;0.95;41.41;102838.50;1743455;81;21617;-53
2021/12/23 03:21:19;;;;;;;12.20;5.80;;;;;;;0.97;41.49;102831.77;1700766;83;21575;-50
2021/12/23 03:23:46;;;;;;;8.80;5.35;;;;;;;0.95;41.56;102832.09;1704314;83;21506;-51
2021/12/23 03:26:14;;;;;;;9.45;5.20;;;;;;;0.99;41.45;102835.28;1743642;80;21057;-51
2021/12/23 03:28:41;;;;;;;6.75;5.15;;;;;;;1.00;41.38;102830.66;1781795;80;21019;-51
2021/12/23 03:31:08;;;;;;;5.60;4.67;;;;;;;1.00;41.28;102831.05;1753494;80;20983;-51
2021/12/23 03:33:34;;;;;;;6.60;4.70;;;;;;;0.99;41.14;102831.88;1760897;80;21010;-50
2021/12/23 03:36:01;;;;;;;6.17;4.72;;;;;;;0.98;41.18;102830.98;1755501;80;21052;-52
2021/12/23 03:38:28;;;;;;;16.60;8.20;;;;;;;0.98;41.24;102836.50;1760978;80;21023;-52
2021/12/23 03:40:55;;;;;;;6.45;4.85;;;;;;;0.97;41.22;102838.17;1775084;80;21049;-51
2021/12/23 03:43:22;;;;;;;9.03;5.78;;;;;;;0.98;41.27;102841.23;1777607;80;21014;-52
2021/12/23 03:45:49;;;;;;;8.40;5.00;;;;;;;0.97;41.30;102839.45;1753783;81;21507;-52
2021/12/23 03:48:17;;;;;;;7.72;5.12;;;;;;;0.98;41.27;102842.91;1781670;80;20994;-51
2021/12/23 03:50:44;;;;;;;8.78;5.28;;;;;;;0.97;41.20;102844.58;1774200;80;20987;-52
2021/12/23 03:53:10;;;;;;;5.30;4.42;;;;;;;0.96;41.18;102842.84;1750090;80;21037;-52
2021/12/23 03:55:37;;;;;;;8.05;5.65;;;;;;;0.96;41.17;102841.56;1757882;80;21410;-52
2021/12/23 03:58:04;;;;;;;7.00;5.33;;;;;;;0.73;41.63;102842.08;1750608;80;20999;-51
2021/12/23 04:00:30;;;;;;;9.25;5.72;;;;;;;0.66;41.65;102842.58;1755733;80;21030;-51
2021/12/23 04:02:57;;;;;;;9.23;5.58;;;;;;;0.83;41.22;102840.45;1762125;80;21493;-51
2021/12/23 04:05:24;;;;;;;7.80;5.20;;;;;;;0.90;41.01;102842.53;1686075;83;21479;-52
2021/12/23 04:07:51;;;;;;;9.23;4.90;;;;;;;0.90;40.82;102843.81;1711897;83;21010;-51
2021/12/23 04:10:21;;;;;;;7.60;5.50;;;;;;;0.87;40.75;102847.49;1731353;82;21522;-51
2021/12/23 04:12:48;;;;;;;6.33;4.97;;;;;;;0.85;40.80;102841.41;1735951;82;21526;-51
2021/12/23 04:15:15;;;;;;;8.33;5.25;;;;;;;0.81;40.82;102834.38;1690983;83;21624;-52
2021/12/23 04:17:41;;;;;;;8.80;5.12;;;;;;;0.79;40.83;102844.55;1708809;83;21531;-51
2021/12/23 04:22:52;;;;;;;8.58;6.20;;;;;;;0.74;40.95;102841.29;1603239;88;21053;-51
2021/12/23 04:25:21;;;;;;;10.15;5.65;;;;;;;0.74;41.15;102840.01;1609818;88;21067;-51
2021/12/23 04:27:49;;;;;;;7.85;5.60;;;;;;;0.71;41.37;102838.16;1661766;84;20988;-51
2021/12/23 04:30:16;;;;;;;10.30;5.90;;;;;;;0.71;41.56;102836.87;1660459;84;21014;-51
2021/12/23 04:32:42;;;;;;;7.12;5.45;;;;;;;0.73;41.69;102843.36;1665047;84;21100;-52
2021/12/23 04:35:10;;;;;;;8.00;5.45;;;;;;;0.73;41.86;102839.52;1660667;84;21037;-51
2021/12/23 04:37:37;;;;;;;8.55;5.83;;;;;;;0.76;41.90;102839.69;1655509;84;21483;-51
2021/12/23 04:40:08;;;;;;;8.10;5.47;;;;;;;0.75;42.07;102836.63;1647257;85;21054;-50
2021/12/23 04:42:36;;;;;;;8.85;6.47;;;;;;;0.72;42.31;102841.61;1654849;85;21050;-50
2021/12/23 04:45:05;;;;;;;8.30;5.80;;;;;;;0.72;42.47;102845.03;1657055;84;21091;-51
2021/12/23 04:47:32;;;;;;;8.70;5.80;;;;;;;0.49;42.90;102849.79;1670289;85;21050;-52
2021/12/23 04:49:58;;;;;;;10.40;7.03;;;;;;;0.32;43.22;102839.05;1660299;84;21042;-51
2021/12/23 04:52:24;;;;;;;10.58;6.30;;;;;;;0.19;43.44;102843.03;1653591;84;21118;-51
2021/12/23 04:54:51;;;;;;;9.78;6.85;;;;;;;0.21;43.62;102845.27;1659477;85;21110;-51
2021/12/23 04:57:18;;;;;;;10.43;7.20;;;;;;;0.36;43.37;102844.81;1650113;84;21041;-52
2021/12/23 04:59:45;;;;;;;8.78;6.58;;;;;;;0.40;43.40;102844.17;1663844;84;21537;-52
2021/12/23 05:02:11;;;;;;;10.63;6.28;;;;;;;0.42;43.49;102847.69;1647327;84;21077;-51
2021/12/23 05:04:38;;;;;;;9.48;5.62;;;;;;;0.38;43.47;102844.48;1664445;85;21131;-51
2021/12/23 05:07:04;;;;;;;8.55;6.22;;;;;;;0.36;43.65;102846.98;1653409;85;21559;-51
2021/12/23 05:09:32;;;;;;;11.25;7.08;;;;;;;0.29;43.77;102845.31;1647845;85;21176;-51
2021/12/23 05:12:00;;;;;;;8.65;6.17;;;;;;;0.17;44.04;102849.75;1671108;84;21561;-51
2021/12/23 05:14:28;;;;;;;11.85;7.08;;;;;;;0.10;44.42;102851.13;1653576;84;21554;-52
2021/12/23 05:16:54;;;;;;;10.08;6.50;;;;;;;-0.03;44.82;102849.59;1691501;81;21066;-51
2021/12/23 05:19:21;;;;;;;9.55;5.92;;;;;;;0.13;44.57;102847.83;1774840;80;21482;-51
2021/12/23 05:21:48;;;;;;;9.25;5.83;;;;;;;0.09;44.24;102853.58;1766302;80;21030;-52
2021/12/23 05:24:14;;;;;;;10.18;6.83;;;;;;;-0.20;44.98;102863.13;1784095;80;21524;-52
2021/12/23 05:26:41;;;;;;;9.75;6.67;;;;;;;-0.32;45.45;102862.45;1757078;80;21530;-52
2021/12/23 05:29:07;;;;;;;9.03;6.25;;;;;;;-0.16;45.21;102856.49;1778486;80;21718;-52
2021/12/23 05:31:34;;;;;;;9.83;6.50;;;;;;;-0.08;45.11;102861.23;1754580;80;21462;-52
2021/12/23 05:34:01;;;;;;;10.13;6.33;;;;;;;-0.07;45.32;102865.57;1752177;80;21136;-52
2021/12/23 05:36:28;;;;;;;8.78;5.67;;;;;;;-0.10;44.77;102862.83;1754510;80;21038;-52
2021/12/23 05:38:55;;;;;;;8.15;6.17;;;;;;;-0.40;45.25;102871.38;1759507;80;21014;-51
2021/12/23 05:41:23;;;;;;;9.23;6.15;;;;;;;-0.48;45.48;102871.35;1712967;83;21031;-51
2021/12/23 05:43:50;;;;;;;8.45;6.03;;;;;;;-0.41;45.68;102874.72;1694370;83;21474;-51
2021/12/23 05:46:16;;;;;;;10.63;6.05;;;;;;;-0.17;44.91;102878.66;1695433;83;21022;-52
2021/12/23 05:48:42;;;;;;;11.90;6.85;;;;;;;-0.16;44.97;102877.84;1770257;80;21045;-52
2021/12/23 05:51:09;;;;;;;12.15;6.55;;;;;;;-0.22;45.21;102879.18;1776533;80;20979;-51
2021/12/23 05:53:35;;;;;;;7.40;6.25;;;;;;;-0.29;45.25;102883.07;1745305;80;21039;-52
2021/12/23 05:56:01;;;;;;;8.63;6.22;;;;;;;-0.31;45.58;102903.84;1768442;80;21518;-52
2021/12/23 05:58:28;;;;;;;9.75;6.10;;;;;;;-0.30;45.33;102899.62;1764883;80;21517;-51
2021/12/23 06:00:57;;;;;;;8.15;6.42;;;;;;;-0.30;45.12;102914.97;1766117;80;21057;-51
2021/12/23 06:03:24;;;;;;;10.23;6.85;;;;;;;-0.43;44.72;102913.39;1756892;80;21053;-51
2021/12/23 06:05:52;;;;;;;9.40;6.47;;;;;;;-0.52;45.01;102910.33;1758553;80;21029;-51
2021/12/23 06:08:18;;;;;;;13.43;6.75;;;;;;;-0.60;45.08;102915.41;1774384;80;21034;-52
2021/12/23 06:10:44;;;;;;;8.08;5.85;;;;;;;-0.62;45.24;102919.55;1767919;80;21030;-51
2021/12/23 06:13:12;;;;;;;8.98;6.40;;;;;;;-0.59;45.26;102916.27;1754881;80;21003;-51
2021/12/23 06:15:39;;;;;;;7.35;6.17;;;;;;;-0.59;45.03;102916.27;1744242;80;21042;-52
2021/12/23 06:18:05;;;;;;;9.30;6.67;;;;;;;-0.58;44.85;102915.10;1769720;80;21116;-52
2021/12/23 06:20:31;;;;;;;9.18;6.15;;;;;;;-0.65;44.27;102921.03;1766830;80;21013;-51
2021/12/23 06:22:58;;;;;;;10.20;6.42;;;;;;;-0.84;44.51;102919.08;1759215;80;21071;-51
2021/12/23 06:25:24;;;;;;;9.35;6.25;;;;;;;-0.96;45.13;102931.14;1763370;80;21058;-50
2021/12/23 06:27:51;;;;;;;9.38;5.50;;;;;;;-1.06;45.16;102932.28;1756839;80;20979;-52
2021/12/23 06:32:51;;;;;;;9.55;6.08;;;;;;;-1.13;45.09;102943.30;1638761;86;21102;-51
2021/12/23 06:35:20;;;;;;;7.67;6.28;;;;;;;-1.22;44.57;102944.93;1642037;86;21535;-51
2021/12/23 06:37:47;;;;;;;11.00;6.37;;;;;;;-1.49;44.86;102944.52;1635076;86;21590;-51
2021/12/23 06:40:14;;;;;;;8.78;6.55;;;;;;;-1.59;45.25;102940.03;1645902;85;21058;-52
2021/12/23 06:42:41;;;;;;;7.95;5.92;;;;;;;-1.67;45.53;102940.42;1647844;85;21041;-51
2021/12/23 06:45:08;;;;;;;11.97;6.85;;;;;;;-1.67;46.38;102940.42;1639544;85;21109;-51
2021/12/23 06:47:36;;;;;;;10.30;6.42;;;;;;;-1.71;46.50;102944.84;1651610;85;21099;-51
2021/12/23 06:50:06;;;;;;;11.50;6.47;;;;;;;-1.76;47.00;102942.42;1653752;85;21070;-51
2021/12/23 06:52:32;;;;;;;11.70;6.28;;;;;;;-1.75;47.13;102939.06;1596886;88;21577;-52
2021/12/23 06:54:59;;;;;;;9.08;6.28;;;;;;;-1.71;47.10;102942.72;1592997;89;21643;-52
2021/12/23 06:57:27;;;;;;;9.03;6.50;;;;;;;-1.68;46.90;102938.67;1593842;89;21050;-51
2021/12/23 06:59:54;;;;;;;10.55;6.40;;;;;;;-1.70;46.09;102939.36;1594336;89;21580;-50
2021/12/23 07:02:20;;;;;;;8.28;6.47;;;;;;;-1.75;46.01;102942.89;1593199;89;21555;-53
2021/12/23 07:04:47;;;;;;;8.78;7.00;;;;;;;-1.78;45.97;102942.72;1595586;89;21070;-51
2021/12/23 07:07:26;;;;;;;12.40;7.22;;;;;;;-1.71;46.37;102946.13;1591750;89;21086;-51
2021/12/23 07:09:45;;;;;;;11.40;7.08;;;;;;;-1.65;46.30;102954.16;1588992;89;21111;-51
2021/12/23 07:12:12;;;;;;;9.88;6.92;;;;;;;-1.60;46.24;102954.84;1603920;89;21082;-50
2021/12/23 07:14:39;;;;;;;9.43;6.67;;;;;;;-1.66;46.18;102954.97;1588675;88;21141;-50
2021/12/23 07:17:07;;;;;;;8.33;6.17;;;;;;;-1.67;46.15;102954.46;1595090;89;21149;-50
2021/12/23 07:19:35;;;;;;;8.13;6.55;;;;;;;-1.70;45.75;102951.73;1606494;88;21126;-49
2021/12/23 07:22:02;;;;;;;9.55;6.03;;;;;;;-1.73;45.41;102950.25;1596301;89;21557;-50
2021/12/23 07:24:28;;;;;;;9.05;6.58;;;;;;;-1.77;45.42;102955.95;1596363;88;21283;-51
2021/12/23 07:26:55;;;;;;;8.58;6.28;;;;;;;-1.75;45.66;102956.93;1596909;89;21142;-50
2021/12/23 07:29:21;;;;;;;14.73;7.15;;;;;;;-1.74;45.78;102956.16;1619869;85;21042;-50
2021/12/23 07:31:48;;;;;;;10.15;6.33;;;;;;;-1.67;45.84;102958.29;1685197;84;21018;-51
2021/12/23 07:34:14;;;;;;;10.80;6.50;;;;;;;-1.65;46.00;102963.52;1676683;84;21049;-51
2021/12/23 07:36:41;;;;;;;8.90;6.05;;;;;;;-1.65;45.93;102963.52;1669166;85;21103;-50
2021/12/23 07:39:09;;;;;;;8.93;6.47;;;;;;;-1.62;45.82;102960.25;1664032;83;21059;-50
2021/12/23 07:41:36;;;;;;;10.35;6.72;;;;;;;-1.56;45.60;102965.73;1638982;85;21089;-50
2021/12/23 07:44:06;;;;;;;10.20;6.80;;;;;;;-1.54;45.64;102967.59;1643594;86;21090;-51
2021/12/23 07:46:35;;;;;;;11.80;6.40;;;;;;;-1.56;45.49;102970.84;1654919;86;21375;-51
2021/12/23 07:49:02;;;;;;;9.55;6.00;;;;;;;-1.59;45.72;102965.55;1653125;85;21110;-51
2021/12/23 07:51:28;;;;;;;9.30;6.42;;;;;;;-1.62;45.71;102973.90;1617831;87;21109;-51
2021/12/23 07:53:55;;;;;;;11.25;6.15;;;;;;;-1.54;45.80;102977.80;1658864;85;21035;-50
2021/12/23 07:56:23;;;;;;;10.50;6.60;;;;;;;-1.47;45.26;102981.63;1677853;83;21087;-50
2021/12/23 07:58:50;;;;;;;12.43;7.08;;;;;;;-1.44;45.13;102977.59;1688857;83;21538;-51
2021/12/23 08:01:18;;;;;;;10.63;7.35;;;;;;;-1.39;44.96;102982.59;1703151;83;21091;-51
2021/12/23 08:03:45;;;;;;;13.58;7.83;;;;;;;-1.30;44.69;102988.25;1693767;83;21079;-50
2021/12/23 08:06:11;;;;;;;10.13;6.55;;;;;;;-1.13;44.38;102988.00;1709723;83;21010;-50
2021/12/23 08:08:38;;;;;;;11.25;6.20;;;;;;;-0.98;44.06;102986.38;1712736;83;21090;-50
2021/12/23 08:11:06;;;;;;;9.50;5.37;;;;;;;-0.90;43.96;102987.72;1699429;83;21554;-51
2021/12/23 08:13:33;;;;;;;7.78;6.72;;;;;;;-0.84;44.07;102991.53;1704257;83;21079;-50
2021/12/23 08:16:01;;;;;;;7.97;6.20;;;;;;;-0.82;44.03;102994.59;1705676;83;21070;-51
2021/12/23 08:18:29;;;;;;;9.88;6.95;;;;;;;-0.77;44.04;102990.23;1708010;83;21494;-51
2021/12/23 08:20:58;;;;;;;9.55;6.60;;;;;;;-0.78;43.55;102988.45;1733247;81;21056;-51
2021/12/23 08:23:25;;;;;;;9.88;6.60;;;;;;;-0.87;43.73;102990.48;1754576;80;21463;-51
2021/12/23 08:25:51;;;;;;;12.13;6.95;;;;;;;-0.85;43.72;102981.23;1763444;80;21605;-51
2021/12/23 08:28:18;;;;;;;9.25;6.53;;;;;;;-0.80;43.83;102982.78;1746383;80;21486;-52
2021/12/23 08:30:44;;;;;;;13.03;7.22;;;;;;;-0.78;43.21;102984.61;1769859;80;21743;-51
2021/12/23 08:33:12;;;;;;;7.92;6.22;;;;;;;-0.74;43.22;102984.00;1756708;80;21524;-51
2021/12/23 08:35:38;;;;;;;8.50;6.90;;;;;;;-0.71;43.25;102984.20;1763702;80;21054;-51
2021/12/23 08:38:05;;;;;;;8.30;6.35;;;;;;;-0.69;43.21;102981.72;1762130;80;21031;-51
2021/12/23 08:40:33;;;;;;;9.98;7.22;;;;;;;-0.66;42.88;102973.83;1756757;81;21011;-51
2021/12/23 08:42:59;;;;;;;8.03;6.25;;;;;;;-0.44;42.47;102973.03;1764814;80;21022;-51
2021/12/23 08:45:27;;;;;;;9.08;6.80;;;;;;;-0.32;41.73;102970.28;1771857;80;21063;-51
2021/12/23 08:47:56;;;;;;;11.40;8.18;;;;;;;-0.32;41.40;102959.66;1768267;80;21497;-52
2021/12/23 08:50:25;;;;;;;10.28;6.95;;;;;;;-0.28;41.59;102954.31;1776215;80;21006;-51
2021/12/23 08:52:52;;;;;;;10.95;7.00;;;;;;;-0.23;41.19;102956.75;1766553;80;21092;-51
2021/12/23 08:55:19;;;;;;;10.28;7.42;;;;;;;-0.29;40.90;102955.98;1749102;80;21164;-51
2021/12/23 08:57:45;;;;;;;12.98;7.97;;;;;;;-0.33;41.18;102951.48;1756683;80;21493;-51
2021/12/23 09:00:16;;;;;;;13.32;6.97;;;;;;;-0.33;41.15;102948.07;1760931;80;21491;-51
2021/12/23 09:02:43;;;;;;;13.05;6.70;;;;;;;-0.33;41.37;102944.23;1766476;80;21044;-50
2021/12/23 09:05:11;;;;;;;11.15;7.40;;;;;;;-0.27;41.28;102947.98;1776329;80;21037;-52
2021/12/23 09:07:38;;;;;;;9.18;7.12;;;;;;;-0.14;41.23;102940.22;1772040;80;21021;-51
2021/12/23 09:10:06;;;;;;;8.58;6.25;;;;;;;-0.02;41.13;102934.50;1751431;80;21015;-52
2021/12/23 09:12:33;;;;;;;11.55;7.17;;;;;;;0.13;40.64;102937.03;1750156;80;21026;-53
2021/12/23 09:15:00;;;;;;;9.03;6.33;;;;;;;0.21;40.38;102925.91;1760664;80;21078;-53
2021/12/23 09:17:26;;;;;;;10.23;7.05;;;;;;;0.20;39.76;102925.45;1771120;80;21027;-53
2021/12/23 09:19:53;;;;;;;12.53;6.83;;;;;;;0.16;39.96;102928.25;1767076;80;21038;-52
2021/12/23 09:22:20;;;;;;;10.88;7.30;;;;;;;0.19;40.03;102927.52;1757775;80;21092;-53
2021/12/23 09:24:48;;;;;;;18.80;11.05;;;;;;;0.27;39.75;102927.56;1741415;80;21073;-49
2021/12/23 09:27:36;;;;;;;9.63;6.30;;;;;;;0.29;39.79;102923.41;1759821;80;21513;-52
2021/12/23 09:35:09;;;;;;;9.88;6.60;;;;;;;0.48;40.17;102912.93;1705224;83;21034;-52
2021/12/23 09:37:36;;;;;;;10.72;7.25;;;;;;;0.51;39.54;102912.22;1693502;83;21577;-51
2021/12/23 09:40:05;;;;;;;10.15;6.85;;;;;;;0.51;39.60;102901.97;1697233;84;21047;-51
2021/12/23 09:42:33;;;;;;;12.00;7.58;;;;;;;0.58;39.56;102904.04;1689886;83;21067;-51
2021/12/23 09:45:05;;;;;;;10.05;6.60;;;;;;;0.58;39.43;102904.04;1708305;83;21073;-52
2021/12/23 09:47:33;;;;;;;8.55;6.45;;;;;;;0.58;39.62;102901.47;1719939;82;21065;-51
2021/12/23 09:50:02;;;;;;;11.03;7.90;;;;;;;0.53;39.85;102901.66;1708432;82;21527;-52
2021/12/23 09:52:31;;;;;;;16.42;9.33;;;;;;;0.56;39.93;102901.80;1705455;83;21074;-52
2021/12/23 09:54:58;;;;;;;11.85;6.95;;;;;;;0.66;39.91;102905.35;1702024;82;21023;-51
2021/12/23 09:57:24;;;;;;;11.95;7.60;;;;;;;0.71;39.61;102897.09;1701275;83;21561;-52
2021/12/23 09:59:51;;;;;;;7.87;6.40;;;;;;;0.81;39.63;102895.88;1697702;83;21601;-51
2021/12/23 10:02:18;;;;;;;11.57;7.53;;;;;;;0.91;39.35;102896.82;1699658;83;21645;-52
2021/12/23 10:04:44;;;;;;;9.90;6.62;;;;;;;0.85;39.32;102892.66;1720973;82;21050;-51
2021/12/23 10:07:11;;;;;;;10.93;6.67;;;;;;;0.81;39.33;102888.19;1699519;83;21051;-52
2021/12/23 10:09:48;;;;;;;8.88;6.05;;;;;;;0.85;39.24;102882.41;1675922;84;21089;-51
2021/12/23 10:37:20;;;;;;;11.53;7.50;;;;;;;1.16;39.50;102844.70;1614935;87;21269;-51
2021/12/23 10:40:08;;;;;;;8.75;6.37;;;;;;;1.15;39.38;102831.42;1612923;88;21099;-51
2021/12/23 10:42:36;;;;;;;10.90;7.45;;;;;;;1.10;39.59;102834.15;1605789;87;21077;-50
2021/12/23 10:45:10;;;;;;;11.75;8.15;;;;;;;1.07;39.82;102839.11;1609443;88;21011;-50
2021/12/23 10:48:02;;;;;;;22.50;8.90;;;;;;;1.08;40.08;102843.45;1563587;90;21276;-51
2021/12/23 10:50:38;;;;;;;8.73;6.95;;;;;;;1.16;40.19;102840.86;1571444;90;21552;-51
2021/12/23 10:53:07;;;;;;;9.20;7.00;;;;;;;1.23;39.91;102838.20;1564379;90;21073;-50
2021/12/23 10:58:19;;;;;;;8.83;7.20;;;;;;;1.22;40.10;102833.47;1566704;90;21063;-51
2021/12/23 11:00:53;;;;;;;12.20;7.37;;;;;;;1.19;40.09;102829.48;1563373;90;21073;-50
2021/12/23 11:03:35;;;;;;;10.05;7.17;;;;;;;1.14;40.28;102830.93;1572948;90;21122;-50
2021/12/23 11:06:19;;;;;;;10.40;7.78;;;;;;;1.18;40.11;102823.86;1563663;90;21144;-51
2021/12/23 11:09:11;;;;;;;11.28;7.53;;;;;;;1.17;39.93;102827.25;1569332;90;21098;-51
2021/12/23 11:42:02;;;;;;;10.80;7.17;;;;;;;1.54;39.22;102808.98;1377659;103;21688;-51
2021/12/23 11:44:20;;;;;;;12.10;7.60;;;;;;;1.58;39.19;102808.31;1381119;103;21132;-51
2021/12/23 11:49:16;;;;;;;10.93;7.42;;;;;;;1.70;39.00;102804.55;1356001;104;21155;-52
2021/12/23 11:51:53;;;;;;;9.88;6.80;;;;;;;1.64;39.10;102807.31;1350326;105;21654;-51
2021/12/23 11:54:25;;;;;;;15.15;9.05;;;;;;;1.60;39.24;102809.66;1342887;105;21250;-51
2021/12/23 11:57:00;;;;;;;10.95;7.40;;;;;;;1.56;39.16;102804.80;1333975;106;21146;-51
2021/12/23 11:59:26;;;;;;;9.20;6.78;;;;;;;1.57;39.13;102796.28;1332052;106;21175;-50
2021/12/23 12:01:55;;;;;;;11.20;7.30;;;;;;;1.65;39.08;102797.52;1329475;107;21155;-50
2021/12/23 12:04:37;;;;;;;8.75;6.37;;;;;;;1.68;39.02;102792.93;1321619;107;21246;-51
2021/12/23 12:07:17;;;;;;;8.35;6.15;;;;;;;1.71;38.64;102792.20;1298889;108;21208;-51
2021/12/23 12:09:57;;;;;;;10.50;7.12;;;;;;;1.73;38.65;102791.87;1225931;115;21206;-51
2021/12/23 12:12:23;;;;;;;8.35;6.50;;;;;;;1.72;38.87;102787.13;1217693;116;21232;-51
2021/12/23 12:14:54;;;;;;;10.78;7.03;;;;;;;1.64;38.53;102788.07;1230728;115;21729;-51
2021/12/23 12:17:34;;;;;;;11.25;6.60;;;;;;;1.54;39.02;102783.33;1228625;115;21749;-51
2021/12/23 12:20:36;;;;;;;10.85;7.47;;;;;;;1.58;39.10;102785.22;1225785;115;21775;-51
2021/12/23 12:23:11;;;;;;;11.20;6.58;;;;;;;1.58;38.97;102785.22;1238424;113;21761;-51
2021/12/23 12:25:47;;;;;;;9.88;6.85;;;;;;;1.56;38.90;102789.41;1251151;112;21224;-51
2021/12/23 12:28:20;;;;;;;10.80;6.20;;;;;;;1.62;38.67;102784.55;1273037;112;21778;-52
2021/12/23 12:30:53;;;;;;;12.53;6.20;;;;;;;1.65;38.38;102779.55;1295588;109;21652;-51
2021/12/23 12:33:28;;;;;;;9.53;6.90;;;;;;;1.69;38.21;102784.84;1318739;106;21643;-51
2021/12/23 12:36:07;;;;;;;8.80;6.58;;;;;;;1.65;38.04;102780.83;1343246;105;21713;-51
2021/12/23 12:38:41;;;;;;;10.50;6.70;;;;;;;1.63;38.28;102781.16;1330813;105;21225;-51
2021/12/23 12:41:18;;;;;;;10.20;6.72;;;;;;;1.62;38.28;102773.41;1343044;106;21208;-51
2021/12/23 12:43:57;;;;;;;9.35;6.17;;;;;;;1.60;38.57;102775.91;1335017;104;21144;-51
2021/12/23 12:49:16;;;;;;;9.15;5.78;;;;;;;1.62;38.27;102776.86;1402281;100;21155;-51
2021/12/23 12:51:44;;;;;;;7.55;5.20;;;;;;;1.68;38.17;102775.37;1402575;102;21182;-51